AirNav   Air Wisconsin Up To $57,000 Bonus
 
 1141 users online  

49TE K Star Ranch Airport
Brenham, Texas, USA

GOING TO BRENHAM?


FAA INFORMATION EFFECTIVE 04 NOVEMBER 2021

Location

FAA Identifier: 49TE
Lat/Long: 30-17-00.7000N 096-27-34.6000W
30-17.011667N 096-27.576667W
30.2835278,-96.4596111
(estimated)
Elevation: 397 ft. / 121 m (estimated)
From city: 8 miles NW of BRENHAM, TX
Time zone: UTC -5 (UTC -6 during Standard Time)
Zip code: 77833

Airport Operations

Airport use: Private use. Permission required prior to landing
Activation date: 04/2013
Control tower: no
ARTCC: HOUSTON CENTER
FSS: MONTGOMERY COUNTY FLIGHT SERVICE STATION
Attendance: UNATNDD
Wind indicator: yes
Segmented circle: no

Airport Communications

WX AWOS-3 at 11R (6 nm SE): 121.125 (979-836-2303)
WX AWOS-3PT at RWV (19 nm NW): 118.35 (979-567-6784)
WX ASOS at CLL (19 nm N): PHONE 979-846-1708

Nearby radio navigation aids

VOR radial/distance  VOR name  Freq  Var
CLLr178/19.4COLLEGE STATION VORTAC113.3008E
IDUr007/20.4INDUSTRY VORTAC110.2008E
TNVr261/20.8NAVASOTA VOR/DME115.9008E
ELAr341/38.0EAGLE LAKE VOR/DME116.4008E

 
NDB name  Hdg/Dist  Freq  Var  ID
ROWDY204/14.126003ECL -.-. .-..

Airport Services

Runway Information

Runway 15/33

Dimensions: 1100 x 75 ft. / 335 x 23 m
Surface: turf
RUNWAY 15  RUNWAY 33
Traffic pattern: rightleft

Airport Ownership and Management from official FAA records

Ownership: Privately-owned
Owner: LYNWOOD KINDT
1205 FM 390 E
BRENHAM, TX 77833
Phone 979-830-8615
Manager: LYNWOOD KINDT
1205 FM 390 E
BRENHAM, TX 77833
Phone 979-830-8615

Airport Operational Statistics

Aircraft based on the field: 1
Single engine airplanes: 1
    

Additional Remarks

OPERATE COMMERCIAL UA TO CONDUCT AERIAL SURVEYS / NORMAL UA OPERATION FOR THE PURPOSES OF UA MAINTENANCE, OPERATOR PROFICIENCY AND DEMO FOR POTENTIAL CUSTOMERS.
FOR CD CTC HOUSTON APCH AT 281-443-5844.
OWNER DESIRES ARPT BE CHARTED.

Instrument Procedures

There are no published instrument procedures at 49TE.

Some nearby airports with instrument procedures:

11R - Brenham Municipal Airport (6 nm SE)
60R - Navasota Municipal Airport (19 nm E)
KRWV - Caldwell Municipal Airport (19 nm NW)
KCLL - Easterwood Field Airport (19 nm N)
KCFD - Coulter Field Airport (27 nm N)
 
Loc | Ops | Rwys | IFR | FBO | Links
Com | Nav | Svcs | Stats | Notes
Aerial photo
No photo
 
Airport distance calculator
Flying to K Star Ranch Airport? Find the distance to fly.

From to 49TE

Sunrise and sunset
Times for 27-Nov-2021
 Local
(UTC-6)
 Zulu
(UTC)
Morning civil twilight06:3712:37
Sunrise07:0313:03
Sunset17:2423:24
Evening civil twilight17:5023:50

Current date and time
Zulu (UTC)  27-Nov-2021 14:57:25
Local (UTC-6)  27-Nov-2021 08:57:25
 
METAR
K11R 
6nm SE 
271435Z AUTO 00000KT 10SM BKN095 OVC120 10/05 A3019 RMK AO2 T00980050
KCLL 
19nm N 
271453Z 17005KT 10SM OVC100 10/04 A3017 RMK AO2 RAE04 SLP217 P0000 60000 T01000044 53004
KRWV 
19nm NW 
271435Z AUTO 19003KT 10SM SCT085 OVC100 09/05 A3018 RMK AO2 T00890051
TAF
KCLL 
19nm N 
271136Z 2712/2812 18003KT P6SM OVC110 FM271500 VRB04KT P6SM -RA OVC090 TEMPO 2715/2719 4SM -SHRA BR OVC026 FM272000 VRB04KT 6SM BR OVC035 TEMPO 2720/2721 4SM -SHRA BR OVC020 FM272100 VRB04KT 5SM -SHRA BR OVC023 FM272200 VRB03KT 5SM -SHRA BR OVC008 FM280000 VRB03KT 4SM RA BR OVC006 FM280700 00000KT 5SM BR VCSH OVC004
NOTAMs
Click for the latest NOTAMs
NOTAMs are issued by the DoD/FAA and will open in a separate window not controlled by AirNav.

 

 
 

Would you like to see your business listed on this page?

 If your business provides an interesting product or service to pilots, flight crews, aircraft, or users of the K Star Ranch Airport, you should consider listing it here.  To start the listing process, click on the button below
 
Add a business
 

Other Pages about K Star Ranch Airport

Update a link
 
Copyright © AirNav, LLC. All rights reserved. Privacy Policy  Contact